sensor_id;sensor_type;location;lat;lon;timestamp;P1;durP1;ratioP1;P2;durP2;ratioP2
3597;SDS011;1813;52.016;8.714;2022-09-06T00:02:05;10.73;;;6.63;;
3597;SDS011;1813;52.016;8.714;2022-09-06T00:04:37;7.70;;;6.90;;
3597;SDS011;1813;52.016;8.714;2022-09-06T00:07:09;15.43;;;7.20;;
3597;SDS011;1813;52.016;8.714;2022-09-06T00:09:41;16.07;;;7.30;;
3597;SDS011;1813;52.016;8.714;2022-09-06T00:12:13;11.50;;;6.90;;
3597;SDS011;1813;52.016;8.714;2022-09-06T00:14:47;13.50;;;7.47;;
3597;SDS011;1813;52.016;8.714;2022-09-06T00:17:19;12.10;;;7.50;;
3597;SDS011;1813;52.016;8.714;2022-09-06T00:19:50;8.77;;;7.07;;
3597;SDS011;1813;52.016;8.714;2022-09-06T00:22:23;9.80;;;6.90;;
3597;SDS011;1813;52.016;8.714;2022-09-06T00:24:55;10.13;;;7.30;;
3597;SDS011;1813;52.016;8.714;2022-09-06T00:27:27;12.37;;;7.10;;
3597;SDS011;1813;52.016;8.714;2022-09-06T00:30:00;9.63;;;7.40;;
3597;SDS011;1813;52.016;8.714;2022-09-06T00:32:34;8.27;;;7.37;;
3597;SDS011;1813;52.016;8.714;2022-09-06T00:35:06;9.90;;;7.47;;
3597;SDS011;1813;52.016;8.714;2022-09-06T00:37:38;9.27;;;6.70;;
3597;SDS011;1813;52.016;8.714;2022-09-06T00:40:10;7.90;;;7.20;;
3597;SDS011;1813;52.016;8.714;2022-09-06T00:42:42;8.57;;;7.30;;
3597;SDS011;1813;52.016;8.714;2022-09-06T00:45:16;15.00;;;6.77;;
3597;SDS011;1813;52.016;8.714;2022-09-06T00:47:48;8.80;;;7.07;;
3597;SDS011;1813;52.016;8.714;2022-09-06T00:50:21;7.30;;;6.60;;
3597;SDS011;1813;52.016;8.714;2022-09-06T00:52:53;10.53;;;7.20;;
3597;SDS011;1813;52.016;8.714;2022-09-06T00:55:25;9.83;;;6.63;;
3597;SDS011;1813;52.016;8.714;2022-09-06T00:57:58;8.70;;;7.00;;
3597;SDS011;1813;52.016;8.714;2022-09-06T01:00:31;8.57;;;7.03;;
3597;SDS011;1813;52.016;8.714;2022-09-06T01:03:05;7.03;;;6.43;;
3597;SDS011;1813;52.016;8.714;2022-09-06T01:05:41;8.17;;;6.70;;
3597;SDS011;1813;52.016;8.714;2022-09-06T01:08:22;8.33;;;6.67;;
3597;SDS011;1813;52.016;8.714;2022-09-06T01:11:09;7.50;;;6.73;;
3597;SDS011;1813;52.016;8.714;2022-09-06T01:13:53;9.87;;;6.80;;
3597;SDS011;1813;52.016;8.714;2022-09-06T01:16:33;6.87;;;6.27;;
3597;SDS011;1813;52.016;8.714;2022-09-06T01:19:24;7.17;;;6.33;;
3597;SDS011;1813;52.016;8.714;2022-09-06T01:22:19;13.50;;;6.47;;
3597;SDS011;1813;52.016;8.714;2022-09-06T01:25:15;11.40;;;7.13;;
3597;SDS011;1813;52.016;8.714;2022-09-06T01:30:59;7.90;;;6.60;;
3597;SDS011;1813;52.016;8.714;2022-09-06T01:33:37;9.67;;;6.43;;
3597;SDS011;1813;52.016;8.714;2022-09-06T01:36:16;7.50;;;6.30;;
3597;SDS011;1813;52.016;8.714;2022-09-06T01:38:52;14.07;;;7.07;;
3597;SDS011;1813;52.016;8.714;2022-09-06T01:41:24;7.23;;;6.53;;
3597;SDS011;1813;52.016;8.714;2022-09-06T01:43:58;12.50;;;6.53;;
3597;SDS011;1813;52.016;8.714;2022-09-06T01:46:32;9.77;;;6.73;;
3597;SDS011;1813;52.016;8.714;2022-09-06T01:49:15;7.33;;;6.37;;
3597;SDS011;1813;52.016;8.714;2022-09-06T01:52:01;8.10;;;6.10;;
3597;SDS011;1813;52.016;8.714;2022-09-06T01:54:45;7.67;;;6.93;;
3597;SDS011;1813;52.016;8.714;2022-09-06T01:57:38;7.93;;;7.13;;
3597;SDS011;1813;52.016;8.714;2022-09-06T02:00:22;9.93;;;7.03;;
3597;SDS011;1813;52.016;8.714;2022-09-06T02:02:58;11.43;;;7.00;;
3597;SDS011;1813;52.016;8.714;2022-09-06T02:05:38;8.10;;;7.30;;
3597;SDS011;1813;52.016;8.714;2022-09-06T02:08:16;8.80;;;7.90;;
3597;SDS011;1813;52.016;8.714;2022-09-06T02:10:53;9.73;;;8.17;;
3597;SDS011;1813;52.016;8.714;2022-09-06T02:13:30;7.87;;;7.07;;
3597;SDS011;1813;52.016;8.714;2022-09-06T02:16:07;8.50;;;7.70;;
3597;SDS011;1813;52.016;8.714;2022-09-06T02:18:45;10.50;;;7.80;;
3597;SDS011;1813;52.016;8.714;2022-09-06T02:21:24;8.77;;;7.87;;
3597;SDS011;1813;52.016;8.714;2022-09-06T02:24:00;9.83;;;7.93;;
3597;SDS011;1813;52.016;8.714;2022-09-06T02:26:39;10.30;;;8.00;;
3597;SDS011;1813;52.016;8.714;2022-09-06T02:29:14;9.20;;;8.27;;
3597;SDS011;1813;52.016;8.714;2022-09-06T02:31:49;9.50;;;7.60;;
3597;SDS011;1813;52.016;8.714;2022-09-06T02:34:25;15.73;;;8.53;;
3597;SDS011;1813;52.016;8.714;2022-09-06T02:36:57;11.43;;;7.70;;
3597;SDS011;1813;52.016;8.714;2022-09-06T02:39:30;11.67;;;8.80;;
3597;SDS011;1813;52.016;8.714;2022-09-06T02:42:02;8.77;;;7.80;;
3597;SDS011;1813;52.016;8.714;2022-09-06T02:44:36;9.67;;;8.00;;
3597;SDS011;1813;52.016;8.714;2022-09-06T02:47:09;11.20;;;8.70;;
3597;SDS011;1813;52.016;8.714;2022-09-06T02:49:41;13.70;;;8.43;;
3597;SDS011;1813;52.016;8.714;2022-09-06T02:52:13;11.83;;;8.67;;
3597;SDS011;1813;52.016;8.714;2022-09-06T02:54:46;9.67;;;8.77;;
3597;SDS011;1813;52.016;8.714;2022-09-06T02:57:18;9.40;;;8.50;;
3597;SDS011;1813;52.016;8.714;2022-09-06T02:59:50;8.50;;;7.60;;
3597;SDS011;1813;52.016;8.714;2022-09-06T03:02:23;9.43;;;8.57;;
3597;SDS011;1813;52.016;8.714;2022-09-06T03:04:55;12.90;;;8.40;;
3597;SDS011;1813;52.016;8.714;2022-09-06T03:07:27;9.63;;;8.53;;
3597;SDS011;1813;52.016;8.714;2022-09-06T03:09:59;12.20;;;8.93;;
3597;SDS011;1813;52.016;8.714;2022-09-06T03:12:31;13.40;;;9.50;;
3597;SDS011;1813;52.016;8.714;2022-09-06T03:15:03;10.43;;;9.33;;
3597;SDS011;1813;52.016;8.714;2022-09-06T03:17:37;9.90;;;8.30;;
3597;SDS011;1813;52.016;8.714;2022-09-06T03:20:11;11.00;;;9.20;;
3597;SDS011;1813;52.016;8.714;2022-09-06T03:22:43;9.60;;;8.70;;
3597;SDS011;1813;52.016;8.714;2022-09-06T03:25:15;9.67;;;8.77;;
3597;SDS011;1813;52.016;8.714;2022-09-06T03:27:47;9.70;;;8.70;;
3597;SDS011;1813;52.016;8.714;2022-09-06T03:30:20;17.30;;;9.80;;
3597;SDS011;1813;52.016;8.714;2022-09-06T03:32:53;13.90;;;9.37;;
3597;SDS011;1813;52.016;8.714;2022-09-06T03:35:25;15.60;;;9.33;;
3597;SDS011;1813;52.016;8.714;2022-09-06T03:37:57;10.60;;;9.53;;
3597;SDS011;1813;52.016;8.714;2022-09-06T03:40:29;13.83;;;10.50;;
3597;SDS011;1813;52.016;8.714;2022-09-06T03:43:01;11.13;;;9.90;;
3597;SDS011;1813;52.016;8.714;2022-09-06T03:45:33;16.60;;;9.80;;
3597;SDS011;1813;52.016;8.714;2022-09-06T03:48:06;10.40;;;9.30;;
3597;SDS011;1813;52.016;8.714;2022-09-06T03:50:42;9.80;;;8.70;;
3597;SDS011;1813;52.016;8.714;2022-09-06T03:53:16;10.33;;;8.70;;
3597;SDS011;1813;52.016;8.714;2022-09-06T03:55:51;9.57;;;8.70;;
3597;SDS011;1813;52.016;8.714;2022-09-06T03:58:27;9.60;;;8.70;;
3597;SDS011;1813;52.016;8.714;2022-09-06T04:01:01;13.00;;;8.67;;
3597;SDS011;1813;52.016;8.714;2022-09-06T04:03:36;10.40;;;8.90;;
3597;SDS011;1813;52.016;8.714;2022-09-06T04:06:09;9.17;;;8.23;;
3597;SDS011;1813;52.016;8.714;2022-09-06T04:08:41;9.53;;;8.60;;
3597;SDS011;1813;52.016;8.714;2022-09-06T04:11:13;9.90;;;8.40;;
3597;SDS011;1813;52.016;8.714;2022-09-06T04:13:45;13.40;;;8.60;;
3597;SDS011;1813;52.016;8.714;2022-09-06T04:16:17;11.93;;;9.40;;
3597;SDS011;1813;52.016;8.714;2022-09-06T04:18:50;12.13;;;10.80;;
3597;SDS011;1813;52.016;8.714;2022-09-06T04:21:22;17.23;;;10.50;;
3597;SDS011;1813;52.016;8.714;2022-09-06T04:23:54;9.97;;;8.97;;
3597;SDS011;1813;52.016;8.714;2022-09-06T04:26:26;10.60;;;9.43;;
3597;SDS011;1813;52.016;8.714;2022-09-06T04:28:58;16.33;;;11.60;;
3597;SDS011;1813;52.016;8.714;2022-09-06T04:31:30;12.50;;;11.20;;
3597;SDS011;1813;52.016;8.714;2022-09-06T04:34:04;11.37;;;10.10;;
3597;SDS011;1813;52.016;8.714;2022-09-06T04:36:36;15.73;;;9.70;;
3597;SDS011;1813;52.016;8.714;2022-09-06T04:39:08;11.33;;;9.20;;
3597;SDS011;1813;52.016;8.714;2022-09-06T04:41:40;11.00;;;9.87;;
3597;SDS011;1813;52.016;8.714;2022-09-06T04:44:12;9.93;;;9.00;;
3597;SDS011;1813;52.016;8.714;2022-09-06T04:46:44;10.10;;;9.20;;
3597;SDS011;1813;52.016;8.714;2022-09-06T04:49:17;11.03;;;8.53;;
3597;SDS011;1813;52.016;8.714;2022-09-06T04:51:49;9.83;;;8.60;;
3597;SDS011;1813;52.016;8.714;2022-09-06T04:54:21;9.70;;;7.93;;
3597;SDS011;1813;52.016;8.714;2022-09-06T04:56:53;10.53;;;8.97;;
3597;SDS011;1813;52.016;8.714;2022-09-06T04:59:25;12.03;;;8.40;;
3597;SDS011;1813;52.016;8.714;2022-09-06T05:01:57;13.47;;;9.63;;
3597;SDS011;1813;52.016;8.714;2022-09-06T05:04:30;13.53;;;9.50;;
3597;SDS011;1813;52.016;8.714;2022-09-06T05:07:03;9.97;;;8.40;;
3597;SDS011;1813;52.016;8.714;2022-09-06T05:10:01;11.30;;;8.23;;
3597;SDS011;1813;52.016;8.714;2022-09-06T05:12:59;12.00;;;8.70;;
3597;SDS011;1813;52.016;8.714;2022-09-06T05:15:31;12.47;;;8.80;;
3597;SDS011;1813;52.016;8.714;2022-09-06T05:18:03;11.23;;;8.70;;
3597;SDS011;1813;52.016;8.714;2022-09-06T05:20:37;14.73;;;9.37;;
3597;SDS011;1813;52.016;8.714;2022-09-06T05:23:09;9.80;;;8.80;;
3597;SDS011;1813;52.016;8.714;2022-09-06T05:25:41;10.43;;;8.43;;
3597;SDS011;1813;52.016;8.714;2022-09-06T05:28:14;11.30;;;9.17;;
3597;SDS011;1813;52.016;8.714;2022-09-06T05:30:46;13.20;;;9.70;;
3597;SDS011;1813;52.016;8.714;2022-09-06T05:33:19;10.80;;;8.87;;
3597;SDS011;1813;52.016;8.714;2022-09-06T05:35:54;13.33;;;9.10;;
3597;SDS011;1813;52.016;8.714;2022-09-06T05:38:26;10.30;;;9.27;;
3597;SDS011;1813;52.016;8.714;2022-09-06T05:40:58;11.53;;;9.50;;
3597;SDS011;1813;52.016;8.714;2022-09-06T05:43:30;11.23;;;9.90;;
3597;SDS011;1813;52.016;8.714;2022-09-06T05:46:02;14.07;;;9.27;;
3597;SDS011;1813;52.016;8.714;2022-09-06T05:48:34;13.30;;;9.57;;
3597;SDS011;1813;52.016;8.714;2022-09-06T05:51:09;12.03;;;9.20;;
3597;SDS011;1813;52.016;8.714;2022-09-06T05:53:43;12.13;;;9.40;;
3597;SDS011;1813;52.016;8.714;2022-09-06T05:56:15;12.90;;;9.27;;
3597;SDS011;1813;52.016;8.714;2022-09-06T05:58:48;11.53;;;9.17;;
3597;SDS011;1813;52.016;8.714;2022-09-06T06:01:20;10.03;;;9.10;;
3597;SDS011;1813;52.016;8.714;2022-09-06T06:03:54;11.30;;;9.20;;
3597;SDS011;1813;52.016;8.714;2022-09-06T06:06:29;10.13;;;9.13;;
3597;SDS011;1813;52.016;8.714;2022-09-06T06:09:02;15.33;;;9.63;;
3597;SDS011;1813;52.016;8.714;2022-09-06T06:11:34;15.57;;;9.07;;
3597;SDS011;1813;52.016;8.714;2022-09-06T06:14:07;10.10;;;9.10;;
3597;SDS011;1813;52.016;8.714;2022-09-06T06:16:39;16.77;;;9.00;;
3597;SDS011;1813;52.016;8.714;2022-09-06T06:19:11;11.90;;;9.30;;
3597;SDS011;1813;52.016;8.714;2022-09-06T06:21:45;12.97;;;9.87;;
3597;SDS011;1813;52.016;8.714;2022-09-06T06:24:17;16.50;;;11.00;;
3597;SDS011;1813;52.016;8.714;2022-09-06T06:26:49;12.83;;;10.30;;
3597;SDS011;1813;52.016;8.714;2022-09-06T06:29:21;18.13;;;10.70;;
3597;SDS011;1813;52.016;8.714;2022-09-06T06:31:54;19.93;;;10.50;;
3597;SDS011;1813;52.016;8.714;2022-09-06T06:34:26;12.97;;;10.40;;
3597;SDS011;1813;52.016;8.714;2022-09-06T06:36:59;12.40;;;9.97;;
3597;SDS011;1813;52.016;8.714;2022-09-06T06:39:31;12.20;;;9.70;;
3597;SDS011;1813;52.016;8.714;2022-09-06T06:42:03;13.27;;;10.10;;
3597;SDS011;1813;52.016;8.714;2022-09-06T06:44:45;20.47;;;11.10;;
3597;SDS011;1813;52.016;8.714;2022-09-06T06:47:17;14.73;;;10.60;;
3597;SDS011;1813;52.016;8.714;2022-09-06T06:49:49;11.37;;;9.53;;
3597;SDS011;1813;52.016;8.714;2022-09-06T06:52:23;17.33;;;10.27;;
3597;SDS011;1813;52.016;8.714;2022-09-06T06:54:55;19.43;;;11.50;;
3597;SDS011;1813;52.016;8.714;2022-09-06T06:57:27;17.33;;;10.53;;
3597;SDS011;1813;52.016;8.714;2022-09-06T06:59:59;12.63;;;10.20;;
3597;SDS011;1813;52.016;8.714;2022-09-06T07:02:31;12.00;;;9.70;;
3597;SDS011;1813;52.016;8.714;2022-09-06T07:05:03;14.80;;;10.00;;
3597;SDS011;1813;52.016;8.714;2022-09-06T07:07:37;15.00;;;9.57;;
3597;SDS011;1813;52.016;8.714;2022-09-06T07:10:09;13.93;;;10.10;;
3597;SDS011;1813;52.016;8.714;2022-09-06T07:12:41;11.53;;;10.30;;
3597;SDS011;1813;52.016;8.714;2022-09-06T07:15:13;14.57;;;10.20;;
3597;SDS011;1813;52.016;8.714;2022-09-06T07:17:45;10.70;;;9.60;;
3597;SDS011;1813;52.016;8.714;2022-09-06T07:20:17;17.40;;;9.83;;
3597;SDS011;1813;52.016;8.714;2022-09-06T07:22:58;15.80;;;9.63;;
3597;SDS011;1813;52.016;8.714;2022-09-06T07:25:31;16.30;;;9.20;;
3597;SDS011;1813;52.016;8.714;2022-09-06T07:28:04;11.20;;;9.67;;
3597;SDS011;1813;52.016;8.714;2022-09-06T07:30:37;11.23;;;9.87;;
3597;SDS011;1813;52.016;8.714;2022-09-06T07:33:09;9.50;;;8.50;;
3597;SDS011;1813;52.016;8.714;2022-09-06T07:35:41;14.80;;;9.20;;
3597;SDS011;1813;52.016;8.714;2022-09-06T07:38:14;12.70;;;9.03;;
3597;SDS011;1813;52.016;8.714;2022-09-06T07:40:51;13.97;;;9.37;;
3597;SDS011;1813;52.016;8.714;2022-09-06T07:43:23;15.40;;;9.00;;
3597;SDS011;1813;52.016;8.714;2022-09-06T07:45:57;15.20;;;8.80;;
3597;SDS011;1813;52.016;8.714;2022-09-06T07:48:30;10.73;;;8.83;;
3597;SDS011;1813;52.016;8.714;2022-09-06T07:51:04;10.27;;;9.17;;
3597;SDS011;1813;52.016;8.714;2022-09-06T07:53:40;13.00;;;9.87;;
3597;SDS011;1813;52.016;8.714;2022-09-06T07:56:14;13.00;;;9.20;;
3597;SDS011;1813;52.016;8.714;2022-09-06T07:58:46;9.27;;;8.27;;
3597;SDS011;1813;52.016;8.714;2022-09-06T08:01:23;10.57;;;9.47;;
3597;SDS011;1813;52.016;8.714;2022-09-06T08:04:00;10.43;;;9.33;;
3597;SDS011;1813;52.016;8.714;2022-09-06T08:06:33;12.20;;;9.27;;
3597;SDS011;1813;52.016;8.714;2022-09-06T08:09:08;13.70;;;9.70;;
3597;SDS011;1813;52.016;8.714;2022-09-06T08:11:41;12.23;;;9.90;;
3597;SDS011;1813;52.016;8.714;2022-09-06T08:14:12;11.83;;;9.93;;
3597;SDS011;1813;52.016;8.714;2022-09-06T08:16:44;14.60;;;9.83;;
3597;SDS011;1813;52.016;8.714;2022-09-06T08:19:16;10.20;;;9.17;;
3597;SDS011;1813;52.016;8.714;2022-09-06T08:21:48;10.90;;;9.90;;
3597;SDS011;1813;52.016;8.714;2022-09-06T08:24:22;11.13;;;10.03;;
3597;SDS011;1813;52.016;8.714;2022-09-06T08:26:54;12.50;;;9.87;;
3597;SDS011;1813;52.016;8.714;2022-09-06T08:29:26;19.80;;;9.50;;
3597;SDS011;1813;52.016;8.714;2022-09-06T08:31:58;15.07;;;9.40;;
3597;SDS011;1813;52.016;8.714;2022-09-06T08:34:30;11.33;;;9.10;;
3597;SDS011;1813;52.016;8.714;2022-09-06T08:37:02;9.93;;;8.97;;
3597;SDS011;1813;52.016;8.714;2022-09-06T08:39:35;12.17;;;9.20;;
3597;SDS011;1813;52.016;8.714;2022-09-06T08:42:07;17.63;;;8.50;;
3597;SDS011;1813;52.016;8.714;2022-09-06T08:44:42;12.70;;;8.57;;
3597;SDS011;1813;52.016;8.714;2022-09-06T08:47:17;11.60;;;8.90;;
3597;SDS011;1813;52.016;8.714;2022-09-06T08:49:51;10.17;;;8.50;;
3597;SDS011;1813;52.016;8.714;2022-09-06T08:52:33;15.27;;;7.53;;
3597;SDS011;1813;52.016;8.714;2022-09-06T08:55:26;10.47;;;7.50;;
3597;SDS011;1813;52.016;8.714;2022-09-06T08:58:07;10.57;;;7.90;;
3597;SDS011;1813;52.016;8.714;2022-09-06T09:00:52;11.57;;;7.70;;
3597;SDS011;1813;52.016;8.714;2022-09-06T09:03:30;9.23;;;7.53;;
3597;SDS011;1813;52.016;8.714;2022-09-06T09:06:04;8.20;;;7.40;;
3597;SDS011;1813;52.016;8.714;2022-09-06T09:08:40;9.23;;;7.83;;
3597;SDS011;1813;52.016;8.714;2022-09-06T09:11:18;16.70;;;7.33;;
3597;SDS011;1813;52.016;8.714;2022-09-06T09:13:53;8.53;;;6.83;;
3597;SDS011;1813;52.016;8.714;2022-09-06T09:16:30;13.50;;;7.77;;
3597;SDS011;1813;52.016;8.714;2022-09-06T09:19:02;17.20;;;7.53;;
3597;SDS011;1813;52.016;8.714;2022-09-06T09:21:36;11.90;;;7.53;;
3597;SDS011;1813;52.016;8.714;2022-09-06T09:24:10;16.43;;;7.57;;
3597;SDS011;1813;52.016;8.714;2022-09-06T09:26:48;12.00;;;7.40;;
3597;SDS011;1813;52.016;8.714;2022-09-06T09:29:23;8.83;;;7.13;;
3597;SDS011;1813;52.016;8.714;2022-09-06T09:31:55;16.60;;;7.50;;
3597;SDS011;1813;52.016;8.714;2022-09-06T09:34:28;11.40;;;6.93;;
3597;SDS011;1813;52.016;8.714;2022-09-06T09:37:09;13.73;;;6.60;;
3597;SDS011;1813;52.016;8.714;2022-09-06T09:39:42;9.20;;;6.43;;
3597;SDS011;1813;52.016;8.714;2022-09-06T09:42:22;7.37;;;6.57;;
3597;SDS011;1813;52.016;8.714;2022-09-06T09:44:58;13.40;;;6.53;;
3597;SDS011;1813;52.016;8.714;2022-09-06T09:47:31;8.73;;;5.97;;
3597;SDS011;1813;52.016;8.714;2022-09-06T09:50:05;6.33;;;5.83;;
3597;SDS011;1813;52.016;8.714;2022-09-06T09:52:53;10.57;;;6.10;;
3597;SDS011;1813;52.016;8.714;2022-09-06T09:55:26;14.23;;;6.10;;
3597;SDS011;1813;52.016;8.714;2022-09-06T09:58:00;10.77;;;5.57;;
3597;SDS011;1813;52.016;8.714;2022-09-06T10:00:33;9.40;;;5.23;;
3597;SDS011;1813;52.016;8.714;2022-09-06T10:03:12;6.50;;;5.80;;
3597;SDS011;1813;52.016;8.714;2022-09-06T10:05:53;5.97;;;5.37;;
3597;SDS011;1813;52.016;8.714;2022-09-06T10:08:27;8.13;;;5.10;;
3597;SDS011;1813;52.016;8.714;2022-09-06T10:11:03;8.60;;;5.77;;
3597;SDS011;1813;52.016;8.714;2022-09-06T10:13:36;9.90;;;5.47;;
3597;SDS011;1813;52.016;8.714;2022-09-06T10:16:11;5.60;;;5.00;;
3597;SDS011;1813;52.016;8.714;2022-09-06T10:18:43;13.13;;;4.93;;
3597;SDS011;1813;52.016;8.714;2022-09-06T10:21:15;11.47;;;4.80;;
3597;SDS011;1813;52.016;8.714;2022-09-06T10:23:55;7.93;;;4.93;;
3597;SDS011;1813;52.016;8.714;2022-09-06T10:26:37;8.07;;;4.83;;
3597;SDS011;1813;52.016;8.714;2022-09-06T10:29:20;5.77;;;4.60;;
3597;SDS011;1813;52.016;8.714;2022-09-06T10:32:07;7.70;;;4.50;;
3597;SDS011;1813;52.016;8.714;2022-09-06T10:34:53;17.53;;;4.50;;
3597;SDS011;1813;52.016;8.714;2022-09-06T10:37:41;10.73;;;4.67;;
3597;SDS011;1813;52.016;8.714;2022-09-06T10:40:29;7.57;;;4.97;;
3597;SDS011;1813;52.016;8.714;2022-09-06T10:43:04;5.47;;;4.30;;
3597;SDS011;1813;52.016;8.714;2022-09-06T10:45:48;5.43;;;4.20;;
3597;SDS011;1813;52.016;8.714;2022-09-06T10:48:28;7.33;;;4.17;;
3597;SDS011;1813;52.016;8.714;2022-09-06T10:51:02;6.70;;;4.10;;
3597;SDS011;1813;52.016;8.714;2022-09-06T10:53:42;6.40;;;4.50;;
3597;SDS011;1813;52.016;8.714;2022-09-06T10:56:21;5.00;;;4.40;;
3597;SDS011;1813;52.016;8.714;2022-09-06T10:59:01;15.97;;;4.70;;
3597;SDS011;1813;52.016;8.714;2022-09-06T11:01:36;15.60;;;4.00;;
3597;SDS011;1813;52.016;8.714;2022-09-06T11:04:13;4.23;;;3.83;;
3597;SDS011;1813;52.016;8.714;2022-09-06T11:06:54;7.03;;;4.00;;
3597;SDS011;1813;52.016;8.714;2022-09-06T11:09:33;6.90;;;4.47;;
3597;SDS011;1813;52.016;8.714;2022-09-06T11:12:11;8.27;;;4.10;;
3597;SDS011;1813;52.016;8.714;2022-09-06T11:14:47;4.43;;;3.90;;
3597;SDS011;1813;52.016;8.714;2022-09-06T11:17:22;10.53;;;3.97;;
3597;SDS011;1813;52.016;8.714;2022-09-06T11:20:02;13.77;;;4.20;;
3597;SDS011;1813;52.016;8.714;2022-09-06T11:22:47;8.10;;;4.43;;
3597;SDS011;1813;52.016;8.714;2022-09-06T11:25:45;8.57;;;4.10;;
3597;SDS011;1813;52.016;8.714;2022-09-06T11:28:36;7.33;;;4.13;;
3597;SDS011;1813;52.016;8.714;2022-09-06T11:31:16;11.00;;;4.30;;
3597;SDS011;1813;52.016;8.714;2022-09-06T11:34:05;10.37;;;4.40;;
3597;SDS011;1813;52.016;8.714;2022-09-06T11:36:44;7.07;;;3.97;;
3597;SDS011;1813;52.016;8.714;2022-09-06T11:39:23;6.70;;;4.40;;
3597;SDS011;1813;52.016;8.714;2022-09-06T11:41:57;4.87;;;3.90;;
3597;SDS011;1813;52.016;8.714;2022-09-06T11:47:38;5.93;;;3.50;;
3597;SDS011;1813;52.016;8.714;2022-09-06T11:50:23;3.93;;;3.60;;
3597;SDS011;1813;52.016;8.714;2022-09-06T11:52:58;5.00;;;3.20;;
3597;SDS011;1813;52.016;8.714;2022-09-06T11:55:42;3.43;;;3.23;;
3597;SDS011;1813;52.016;8.714;2022-09-06T11:58:19;6.50;;;3.47;;
3597;SDS011;1813;52.016;8.714;2022-09-06T12:04:06;8.23;;;3.90;;
3597;SDS011;1813;52.016;8.714;2022-09-06T12:06:41;3.83;;;3.63;;
3597;SDS011;1813;52.016;8.714;2022-09-06T12:09:27;10.33;;;3.60;;
3597;SDS011;1813;52.016;8.714;2022-09-06T12:12:01;10.07;;;3.73;;
3597;SDS011;1813;52.016;8.714;2022-09-06T12:14:34;4.53;;;3.60;;
3597;SDS011;1813;52.016;8.714;2022-09-06T12:17:19;10.60;;;3.70;;
3597;SDS011;1813;52.016;8.714;2022-09-06T12:19:52;4.10;;;3.33;;
3597;SDS011;1813;52.016;8.714;2022-09-06T12:25:50;3.83;;;3.50;;
3597;SDS011;1813;52.016;8.714;2022-09-06T12:28:25;4.67;;;3.80;;
3597;SDS011;1813;52.016;8.714;2022-09-06T12:34:07;4.50;;;3.77;;
3597;SDS011;1813;52.016;8.714;2022-09-06T12:36:55;4.33;;;3.93;;
3597;SDS011;1813;52.016;8.714;2022-09-06T12:39:32;3.73;;;3.53;;
3597;SDS011;1813;52.016;8.714;2022-09-06T12:42:05;4.00;;;3.70;;
3597;SDS011;1813;52.016;8.714;2022-09-06T12:44:42;7.53;;;3.83;;
3597;SDS011;1813;52.016;8.714;2022-09-06T12:47:22;9.13;;;3.40;;
3597;SDS011;1813;52.016;8.714;2022-09-06T12:50:12;4.00;;;3.60;;
3597;SDS011;1813;52.016;8.714;2022-09-06T12:52:48;3.60;;;3.30;;
3597;SDS011;1813;52.016;8.714;2022-09-06T12:55:24;4.90;;;3.90;;
3597;SDS011;1813;52.016;8.714;2022-09-06T12:57:58;5.00;;;3.47;;
3597;SDS011;1813;52.016;8.714;2022-09-06T13:00:33;4.00;;;3.70;;
3597;SDS011;1813;52.016;8.714;2022-09-06T13:03:11;6.80;;;3.90;;
3597;SDS011;1813;52.016;8.714;2022-09-06T13:05:56;5.60;;;3.63;;
3597;SDS011;1813;52.016;8.714;2022-09-06T13:08:32;4.10;;;3.77;;
3597;SDS011;1813;52.016;8.714;2022-09-06T13:11:08;8.87;;;3.70;;
3597;SDS011;1813;52.016;8.714;2022-09-06T13:13:44;7.27;;;3.90;;
3597;SDS011;1813;52.016;8.714;2022-09-06T13:16:19;5.60;;;3.60;;
3597;SDS011;1813;52.016;8.714;2022-09-06T13:18:54;7.77;;;3.80;;
3597;SDS011;1813;52.016;8.714;2022-09-06T13:21:42;4.00;;;3.70;;
3597;SDS011;1813;52.016;8.714;2022-09-06T13:24:17;4.33;;;3.90;;
3597;SDS011;1813;52.016;8.714;2022-09-06T13:26:51;7.50;;;3.80;;
3597;SDS011;1813;52.016;8.714;2022-09-06T13:29:27;5.33;;;3.90;;
3597;SDS011;1813;52.016;8.714;2022-09-06T13:32:01;7.70;;;3.80;;
3597;SDS011;1813;52.016;8.714;2022-09-06T13:34:34;5.20;;;3.90;;
3597;SDS011;1813;52.016;8.714;2022-09-06T13:37:07;3.93;;;3.60;;
3597;SDS011;1813;52.016;8.714;2022-09-06T13:39:41;5.43;;;3.80;;
3597;SDS011;1813;52.016;8.714;2022-09-06T13:42:23;8.90;;;3.60;;
3597;SDS011;1813;52.016;8.714;2022-09-06T13:44:57;4.73;;;3.77;;
3597;SDS011;1813;52.016;8.714;2022-09-06T13:47:45;5.70;;;3.80;;
3597;SDS011;1813;52.016;8.714;2022-09-06T13:50:17;8.40;;;3.90;;
3597;SDS011;1813;52.016;8.714;2022-09-06T13:52:49;13.40;;;3.53;;
3597;SDS011;1813;52.016;8.714;2022-09-06T13:55:22;5.60;;;3.60;;
3597;SDS011;1813;52.016;8.714;2022-09-06T13:57:59;11.30;;;4.33;;
3597;SDS011;1813;52.016;8.714;2022-09-06T14:00:34;3.80;;;3.50;;
3597;SDS011;1813;52.016;8.714;2022-09-06T14:03:08;20.17;;;3.80;;
3597;SDS011;1813;52.016;8.714;2022-09-06T14:05:48;13.87;;;3.63;;
3597;SDS011;1813;52.016;8.714;2022-09-06T14:08:20;9.43;;;3.73;;
3597;SDS011;1813;52.016;8.714;2022-09-06T14:10:51;4.97;;;3.27;;
3597;SDS011;1813;52.016;8.714;2022-09-06T14:13:25;5.80;;;3.27;;
3597;SDS011;1813;52.016;8.714;2022-09-06T14:15:57;19.03;;;3.97;;
3597;SDS011;1813;52.016;8.714;2022-09-06T14:18:29;13.57;;;3.20;;
3597;SDS011;1813;52.016;8.714;2022-09-06T14:21:01;24.83;;;3.83;;
3597;SDS011;1813;52.016;8.714;2022-09-06T14:23:34;11.73;;;3.30;;
3597;SDS011;1813;52.016;8.714;2022-09-06T14:26:06;5.93;;;3.67;;
3597;SDS011;1813;52.016;8.714;2022-09-06T14:28:40;3.60;;;3.30;;
3597;SDS011;1813;52.016;8.714;2022-09-06T14:31:12;10.20;;;3.70;;
3597;SDS011;1813;52.016;8.714;2022-09-06T14:33:46;5.60;;;3.17;;
3597;SDS011;1813;52.016;8.714;2022-09-06T14:36:19;6.33;;;3.70;;
3597;SDS011;1813;52.016;8.714;2022-09-06T14:38:52;5.80;;;3.60;;
3597;SDS011;1813;52.016;8.714;2022-09-06T14:41:24;6.00;;;3.50;;
3597;SDS011;1813;52.016;8.714;2022-09-06T14:43:58;13.40;;;4.20;;
3597;SDS011;1813;52.016;8.714;2022-09-06T14:46:30;6.57;;;3.87;;
3597;SDS011;1813;52.016;8.714;2022-09-06T14:49:03;11.93;;;4.40;;
3597;SDS011;1813;52.016;8.714;2022-09-06T14:51:36;4.70;;;4.20;;
3597;SDS011;1813;52.016;8.714;2022-09-06T14:54:10;5.67;;;3.97;;
3597;SDS011;1813;52.016;8.714;2022-09-06T14:56:44;4.97;;;4.47;;
3597;SDS011;1813;52.016;8.714;2022-09-06T14:59:17;4.40;;;4.00;;
3597;SDS011;1813;52.016;8.714;2022-09-06T15:01:49;11.20;;;4.17;;
3597;SDS011;1813;52.016;8.714;2022-09-06T15:04:21;4.30;;;4.00;;
3597;SDS011;1813;52.016;8.714;2022-09-06T15:06:55;12.50;;;3.90;;
3597;SDS011;1813;52.016;8.714;2022-09-06T15:09:28;14.27;;;4.13;;
3597;SDS011;1813;52.016;8.714;2022-09-06T15:11:59;7.17;;;4.07;;
3597;SDS011;1813;52.016;8.714;2022-09-06T15:14:33;12.10;;;4.80;;
3597;SDS011;1813;52.016;8.714;2022-09-06T15:17:06;5.80;;;4.50;;
3597;SDS011;1813;52.016;8.714;2022-09-06T15:19:40;9.10;;;4.50;;
3597;SDS011;1813;52.016;8.714;2022-09-06T15:22:11;8.40;;;4.80;;
3597;SDS011;1813;52.016;8.714;2022-09-06T15:24:43;8.10;;;5.10;;
3597;SDS011;1813;52.016;8.714;2022-09-06T15:27:16;7.20;;;5.00;;
3597;SDS011;1813;52.016;8.714;2022-09-06T15:29:50;5.63;;;4.90;;
3597;SDS011;1813;52.016;8.714;2022-09-06T15:32:21;10.57;;;4.50;;
3597;SDS011;1813;52.016;8.714;2022-09-06T15:34:54;8.93;;;5.07;;
3597;SDS011;1813;52.016;8.714;2022-09-06T15:37:26;16.93;;;5.10;;
3597;SDS011;1813;52.016;8.714;2022-09-06T15:39:58;9.83;;;5.03;;
3597;SDS011;1813;52.016;8.714;2022-09-06T15:42:30;13.70;;;4.70;;
3597;SDS011;1813;52.016;8.714;2022-09-06T15:45:03;7.33;;;5.03;;
3597;SDS011;1813;52.016;8.714;2022-09-06T15:47:36;11.23;;;5.07;;
3597;SDS011;1813;52.016;8.714;2022-09-06T15:50:09;10.70;;;5.23;;
3597;SDS011;1813;52.016;8.714;2022-09-06T15:52:41;16.30;;;4.83;;
3597;SDS011;1813;52.016;8.714;2022-09-06T15:55:13;9.70;;;4.97;;
3597;SDS011;1813;52.016;8.714;2022-09-06T15:58:02;13.23;;;5.20;;
3597;SDS011;1813;52.016;8.714;2022-09-06T16:00:36;8.73;;;5.73;;
3597;SDS011;1813;52.016;8.714;2022-09-06T16:03:08;8.07;;;5.07;;
3597;SDS011;1813;52.016;8.714;2022-09-06T16:05:40;7.47;;;5.47;;
3597;SDS011;1813;52.016;8.714;2022-09-06T16:08:12;5.20;;;4.70;;
3597;SDS011;1813;52.016;8.714;2022-09-06T16:10:44;11.50;;;5.43;;
3597;SDS011;1813;52.016;8.714;2022-09-06T16:13:17;13.47;;;5.47;;